createdAt,value
2019-04-01T00:01:10.309Z,99.90
2019-04-01T00:03:36.666Z,99.90
2019-04-01T00:06:03.041Z,99.90
2019-04-01T00:08:29.436Z,99.90
2019-04-01T00:10:55.870Z,99.90
2019-04-01T00:13:22.349Z,99.90
2019-04-01T00:15:48.744Z,99.90
2019-04-01T00:18:15.138Z,99.90
2019-04-01T00:20:41.547Z,99.90
2019-04-01T00:23:08.099Z,99.90
2019-04-01T00:25:34.595Z,99.90
2019-04-01T00:28:00.983Z,99.90
2019-04-01T00:30:27.367Z,99.90
2019-04-01T00:32:53.752Z,99.90
2019-04-01T00:35:20.146Z,99.90
2019-04-01T00:37:46.510Z,99.90
2019-04-01T00:40:12.959Z,99.90
2019-04-01T00:42:50.156Z,99.90
2019-04-01T00:45:18.407Z,99.90
2019-04-01T00:47:44.796Z,99.90
2019-04-01T00:50:11.267Z,99.90
2019-04-01T00:52:37.634Z,99.90
2019-04-01T00:55:05.362Z,99.90
2019-04-01T00:57:31.714Z,99.90
2019-04-01T00:59:58.093Z,99.90
2019-04-01T01:02:24.433Z,99.90
2019-04-01T01:04:50.843Z,99.90
2019-04-01T01:07:17.321Z,99.90
2019-04-01T01:09:43.713Z,99.90
2019-04-01T01:12:10.089Z,99.90
2019-04-01T01:14:36.453Z,99.90
2019-04-01T01:17:02.802Z,99.90
2019-04-01T01:19:29.191Z,99.90
2019-04-01T01:21:55.591Z,99.90
2019-04-01T01:24:21.965Z,99.90
2019-04-01T01:26:48.347Z,99.90
2019-04-01T01:29:14.821Z,99.90
2019-04-01T01:31:41.245Z,99.90
2019-04-01T01:34:07.627Z,99.90
2019-04-01T01:36:34.077Z,99.90
2019-04-01T01:39:00.465Z,99.90
2019-04-01T01:41:26.829Z,99.90
2019-04-01T01:43:53.246Z,99.90
2019-04-01T01:46:19.589Z,99.90
2019-04-01T01:48:45.914Z,99.90
2019-04-01T01:51:12.287Z,99.90
2019-04-01T01:53:41.528Z,99.90
2019-04-01T01:56:06.803Z,99.90
2019-04-01T01:58:33.145Z,99.90
2019-04-01T02:00:59.820Z,99.90
2019-04-01T02:03:26.131Z,99.90
2019-04-01T02:05:52.524Z,99.90
2019-04-01T02:08:18.856Z,99.90
2019-04-01T02:10:45.217Z,99.90
2019-04-01T02:13:11.572Z,99.90
2019-04-01T02:15:37.967Z,99.90
2019-04-01T02:18:04.359Z,99.90
2019-04-01T02:20:30.733Z,99.90
2019-04-01T02:22:57.110Z,99.90
2019-04-01T02:25:23.508Z,99.90
2019-04-01T02:27:49.892Z,99.90
2019-04-01T02:30:16.316Z,99.90
2019-04-01T02:32:42.668Z,99.90
2019-04-01T02:35:09.051Z,99.90
2019-04-01T02:37:35.397Z,99.90
2019-04-01T02:40:02.588Z,99.90
2019-04-01T02:42:29.025Z,99.90
2019-04-01T02:44:55.386Z,99.90
2019-04-01T02:47:21.782Z,99.90
2019-04-01T02:49:48.174Z,99.90
2019-04-01T02:52:14.549Z,99.90
2019-04-01T02:54:40.983Z,99.90
2019-04-01T02:57:07.352Z,99.90
2019-04-01T02:59:33.822Z,99.90
2019-04-01T03:02:00.256Z,99.90
2019-04-01T03:04:26.645Z,99.90
2019-04-01T03:06:53.047Z,99.90
2019-04-01T03:09:19.449Z,99.90
2019-04-01T03:11:45.891Z,99.90
2019-04-01T03:14:12.372Z,99.90
2019-04-01T03:16:38.721Z,99.90
2019-04-01T03:19:05.129Z,99.90
2019-04-01T03:21:31.524Z,99.90
2019-04-01T03:23:58.034Z,99.90
2019-04-01T03:26:24.452Z,99.90
2019-04-01T03:28:50.872Z,99.90
2019-04-01T03:31:17.294Z,99.90
2019-04-01T03:33:43.722Z,99.90
2019-04-01T03:36:10.114Z,99.90
2019-04-01T03:38:36.524Z,99.90
2019-04-01T03:41:02.880Z,99.90
2019-04-01T03:43:29.314Z,99.90
2019-04-01T03:45:55.678Z,99.90
2019-04-01T03:48:22.040Z,99.90
2019-04-01T03:50:48.445Z,99.90
2019-04-01T03:53:14.756Z,99.90
2019-04-01T03:55:41.143Z,99.90
2019-04-01T03:58:07.534Z,99.90
2019-04-01T04:00:33.933Z,99.90
2019-04-01T04:03:00.275Z,99.90
2019-04-01T04:05:26.690Z,99.90
2019-04-01T04:07:53.075Z,99.90
2019-04-01T04:10:19.471Z,99.90
2019-04-01T04:12:45.893Z,99.90
2019-04-01T04:15:12.407Z,99.90
2019-04-01T04:17:38.796Z,99.90
2019-04-01T04:20:05.200Z,99.90
2019-04-01T04:22:31.577Z,99.90
2019-04-01T04:24:57.933Z,99.90
2019-04-01T04:27:24.401Z,99.90
2019-04-01T04:29:51.089Z,99.90
2019-04-01T04:32:17.486Z,99.90
2019-04-01T04:34:43.988Z,99.90
2019-04-01T04:37:10.496Z,99.90
2019-04-01T04:39:36.998Z,99.90
2019-04-01T04:42:03.777Z,99.90
2019-04-01T04:44:30.318Z,99.90
2019-04-01T04:46:56.826Z,99.90
2019-04-01T04:49:23.241Z,99.90
2019-04-01T04:51:49.900Z,99.90
2019-04-01T04:54:16.300Z,99.90
2019-04-01T04:56:42.714Z,99.90
2019-04-01T04:59:09.199Z,99.90
2019-04-01T05:01:35.576Z,99.90
2019-04-01T05:04:01.960Z,99.90
2019-04-01T05:06:28.420Z,99.90
2019-04-01T05:08:54.772Z,99.90
2019-04-01T05:11:21.387Z,99.90
2019-04-01T05:13:47.741Z,99.90
2019-04-01T05:16:14.141Z,99.90
2019-04-01T05:18:40.516Z,99.90
2019-04-01T05:21:07.039Z,99.90
2019-04-01T05:23:33.530Z,99.90
2019-04-01T05:26:00.737Z,99.90
2019-04-01T05:28:28.447Z,99.90
2019-04-01T05:30:58.068Z,99.90
2019-04-01T05:33:24.464Z,99.90
2019-04-01T05:35:50.871Z,99.90
2019-04-01T05:38:17.292Z,99.90
2019-04-01T05:40:43.825Z,99.90
2019-04-01T05:43:10.214Z,99.90
2019-04-01T05:45:36.655Z,99.90
2019-04-01T05:48:03.036Z,99.90
2019-04-01T05:50:29.553Z,99.90
2019-04-01T05:52:56.029Z,99.90
2019-04-01T05:55:22.419Z,99.90
2019-04-01T05:57:48.852Z,99.90
2019-04-01T06:00:23.421Z,99.90
2019-04-01T06:02:49.862Z,99.90
2019-04-01T06:05:16.334Z,99.90
2019-04-01T06:07:42.734Z,99.90
2019-04-01T06:10:10.260Z,99.90
2019-04-01T06:12:36.657Z,99.90
2019-04-01T06:15:06.198Z,99.90
2019-04-01T06:17:32.633Z,99.90
2019-04-01T06:19:59.044Z,99.90
2019-04-01T06:22:25.555Z,99.90
2019-04-01T06:24:52.538Z,99.90
2019-04-01T06:27:18.937Z,99.90
2019-04-01T06:29:45.400Z,99.90
2019-04-01T06:32:11.806Z,99.90
2019-04-01T06:34:52.075Z,99.90
2019-04-01T06:37:06.397Z,99.90
2019-04-01T06:39:32.817Z,99.90
2019-04-01T06:41:59.193Z,99.90
2019-04-01T06:44:25.659Z,99.90
2019-04-01T06:46:52.026Z,98.50
2019-04-01T06:49:20.392Z,98.80
2019-04-01T06:51:46.857Z,98.80
2019-04-01T06:54:13.348Z,98.50
2019-04-01T06:56:39.740Z,98.30
2019-04-01T06:59:06.127Z,97.30
2019-04-01T07:01:32.553Z,96.10
2019-04-01T07:03:58.977Z,95.70
2019-04-01T07:06:25.401Z,95.20
2019-04-01T07:08:52.794Z,95.60
2019-04-01T07:11:20.903Z,95.00
2019-04-01T07:13:47.289Z,93.60
2019-04-01T07:16:15.922Z,90.50
2019-04-01T07:18:42.062Z,91.10
2019-04-01T07:21:08.509Z,90.00
2019-04-01T07:23:34.949Z,90.10
2019-04-01T07:26:01.419Z,89.50
2019-04-01T07:28:27.854Z,82.30
2019-04-01T07:30:54.235Z,79.30
2019-04-01T07:33:20.624Z,82.00
2019-04-01T07:35:47.007Z,80.60
2019-04-01T07:38:13.848Z,77.20
2019-04-01T07:40:40.258Z,74.90
2019-04-01T07:43:06.658Z,70.40
2019-04-01T07:45:33.533Z,72.60
2019-04-01T07:48:00.030Z,73.80
2019-04-01T07:50:26.385Z,67.50
2019-04-01T07:52:55.432Z,71.20
2019-04-01T07:55:21.076Z,70.20
2019-04-01T07:57:47.496Z,66.50
2019-04-01T08:00:14.183Z,65.50
2019-04-01T08:02:40.581Z,64.30
2019-04-01T08:05:07.275Z,64.80
2019-04-01T08:07:33.736Z,59.60
2019-04-01T08:10:00.264Z,61.80
2019-04-01T08:12:28.033Z,59.80
2019-04-01T08:14:54.878Z,61.40
2019-04-01T08:17:21.355Z,57.40
2019-04-01T08:19:48.052Z,58.50
2019-04-01T08:22:14.475Z,55.80
2019-04-01T08:24:40.946Z,54.50
2019-04-01T08:27:07.551Z,53.10
2019-04-01T08:29:33.959Z,53.60
2019-04-01T08:32:00.480Z,51.70
2019-04-01T08:34:27.038Z,52.30
2019-04-01T08:36:53.504Z,49.80
2019-04-01T08:39:19.914Z,48.40
2019-04-01T08:41:46.297Z,51.60
2019-04-01T08:44:12.847Z,44.20
2019-04-01T08:46:39.287Z,43.40
2019-04-01T08:49:07.953Z,40.40
2019-04-01T08:51:33.886Z,40.20
2019-04-01T08:54:00.284Z,39.40
2019-04-01T08:56:26.722Z,35.90
2019-04-01T08:58:53.666Z,39.40
2019-04-01T09:01:34.269Z,37.60
2019-04-01T09:03:48.695Z,36.70
2019-04-01T09:06:15.083Z,33.00
2019-04-01T09:08:42.388Z,34.90
2019-04-01T09:11:09.393Z,32.50
2019-04-01T09:13:36.009Z,32.20
2019-04-01T09:16:02.678Z,33.70
2019-04-01T09:18:29.175Z,35.00
2019-04-01T09:20:56.593Z,32.70
2019-04-01T09:23:22.948Z,35.30
2019-04-01T09:25:49.365Z,37.10
2019-04-01T09:28:15.802Z,35.40
2019-04-01T09:30:42.243Z,37.00
2019-04-01T09:33:08.646Z,34.80
2019-04-01T09:35:35.052Z,32.60
2019-04-01T09:38:01.587Z,34.20
2019-04-01T09:40:28.133Z,35.40
2019-04-01T09:42:54.572Z,34.80
2019-04-01T09:45:21.081Z,33.90
2019-04-01T09:47:47.634Z,33.70
2019-04-01T09:50:14.686Z,36.60
2019-04-01T09:52:41.076Z,36.60
2019-04-01T09:55:07.865Z,35.20
2019-04-01T09:57:34.351Z,35.10
2019-04-01T10:00:00.821Z,35.80
2019-04-01T10:02:32.042Z,33.40
2019-04-01T10:04:55.518Z,33.10
2019-04-01T10:07:22.028Z,32.50
2019-04-01T10:09:48.432Z,35.40
2019-04-01T10:12:14.865Z,34.70
2019-04-01T10:14:41.512Z,33.20
2019-04-01T10:17:07.931Z,32.80
2019-04-01T10:19:34.378Z,31.60
2019-04-01T10:22:01.868Z,34.00
2019-04-01T10:24:28.434Z,31.90
2019-04-01T10:26:54.854Z,32.10
2019-04-01T10:29:21.242Z,30.30
2019-04-01T10:31:48.721Z,31.20
2019-04-01T10:34:15.232Z,30.30
2019-04-01T10:36:42.036Z,30.00
2019-04-01T10:39:09.570Z,32.20
2019-04-01T10:41:36.150Z,34.60
2019-04-01T10:44:04.975Z,32.30
2019-04-01T10:46:31.645Z,31.80
2019-04-01T10:48:58.140Z,32.20
2019-04-01T10:51:24.585Z,29.60
2019-04-01T10:53:51.305Z,28.50
2019-04-01T10:56:17.690Z,29.90
2019-04-01T10:58:44.120Z,29.30
2019-04-01T11:01:10.512Z,29.70
2019-04-01T11:03:36.975Z,29.60
2019-04-01T11:06:03.403Z,31.60
2019-04-01T11:08:29.867Z,29.60
2019-04-01T11:10:56.280Z,28.80
2019-04-01T11:13:22.732Z,29.90
2019-04-01T11:15:49.211Z,30.10
2019-04-01T11:18:15.626Z,30.90
2019-04-01T11:20:42.051Z,29.50
2019-04-01T11:23:08.510Z,30.60
2019-04-01T11:25:34.872Z,33.30
2019-04-01T11:28:01.317Z,32.40
2019-04-01T11:30:27.825Z,30.90
2019-04-01T11:32:54.248Z,30.00
2019-04-01T11:35:21.717Z,29.00
2019-04-01T11:37:48.148Z,28.90
2019-04-01T11:40:14.836Z,29.50
2019-04-01T11:42:41.289Z,28.40
2019-04-01T11:45:07.813Z,27.70
2019-04-01T11:47:34.218Z,27.90
2019-04-01T11:50:00.573Z,26.10
2019-04-01T11:52:27.047Z,28.40
2019-04-01T11:54:53.506Z,29.00
2019-04-01T11:57:19.893Z,28.20
2019-04-01T11:59:46.466Z,28.80
2019-04-01T12:02:12.892Z,28.40
2019-04-01T12:04:39.326Z,28.00
2019-04-01T12:07:06.899Z,27.50
2019-04-01T12:09:33.328Z,28.70
2019-04-01T12:11:59.814Z,30.10
2019-04-01T12:14:26.751Z,28.60
2019-04-01T12:16:53.249Z,29.50
2019-04-01T12:19:19.723Z,29.00
2019-04-01T12:21:47.283Z,29.20
2019-04-01T12:24:13.701Z,30.50
2019-04-01T12:26:41.434Z,27.20
2019-04-01T12:29:07.765Z,27.70
2019-04-01T12:31:34.157Z,27.60
2019-04-01T12:34:00.519Z,26.90
2019-04-01T12:36:27.556Z,27.00
2019-04-01T12:38:54.123Z,26.70
2019-04-01T12:41:20.551Z,26.50
2019-04-01T12:43:47.004Z,26.90
2019-04-01T12:46:13.511Z,27.40
2019-04-01T12:48:39.922Z,27.80
2019-04-01T12:51:06.364Z,28.80
2019-04-01T12:53:32.809Z,28.00
2019-04-01T12:55:59.276Z,28.40
2019-04-01T12:58:25.986Z,29.50
2019-04-01T13:00:52.386Z,28.00
2019-04-01T13:03:18.968Z,28.20
2019-04-01T13:05:45.388Z,28.40
2019-04-01T13:08:11.796Z,27.50
2019-04-01T13:10:38.159Z,27.90
2019-04-01T13:13:04.558Z,28.00
2019-04-01T13:15:30.967Z,27.90
2019-04-01T13:17:57.406Z,28.30
2019-04-01T13:20:37.100Z,28.60
2019-04-01T13:22:52.046Z,29.10
2019-04-01T13:25:18.437Z,27.40
2019-04-01T13:27:44.802Z,28.80
2019-04-01T13:30:11.331Z,28.70
2019-04-01T13:32:37.767Z,29.00
2019-04-01T13:35:04.899Z,29.20
2019-04-01T13:37:31.326Z,29.40
2019-04-01T13:39:57.926Z,29.40
2019-04-01T13:42:25.076Z,29.50
2019-04-01T13:44:51.805Z,30.20
2019-04-01T13:47:18.208Z,30.70
2019-04-01T13:49:44.633Z,30.20
2019-04-01T13:52:11.144Z,29.50
2019-04-01T13:54:37.588Z,30.60
2019-04-01T13:57:04.066Z,29.20
2019-04-01T13:59:30.484Z,29.50
2019-04-01T14:01:57.222Z,29.70
2019-04-01T14:04:23.801Z,30.30
2019-04-01T14:06:50.284Z,30.20
2019-04-01T14:09:16.659Z,30.80
2019-04-01T14:11:43.090Z,30.50
2019-04-01T14:14:09.501Z,30.10
2019-04-01T14:16:35.995Z,29.60
2019-04-01T14:19:02.537Z,28.90
2019-04-01T14:21:28.950Z,28.20
2019-04-01T14:23:55.459Z,29.90
2019-04-01T14:26:21.923Z,30.50
2019-04-01T14:28:49.212Z,29.90
2019-04-01T14:31:19.043Z,30.10
2019-04-01T14:33:43.938Z,31.70
2019-04-01T14:36:10.328Z,30.60
2019-04-01T14:38:36.694Z,31.60
2019-04-01T14:41:03.729Z,34.30
2019-04-01T14:43:31.289Z,33.00
2019-04-01T14:45:57.944Z,33.90
2019-04-01T14:48:24.262Z,34.30
2019-04-01T14:50:50.727Z,34.90
2019-04-01T14:53:17.140Z,35.20
2019-04-01T14:55:43.546Z,33.80
2019-04-01T14:58:09.902Z,34.90
2019-04-01T15:00:36.319Z,34.20
2019-04-01T15:03:02.773Z,33.20
2019-04-01T15:05:29.141Z,34.80
2019-04-01T15:07:55.489Z,34.20
2019-04-01T15:10:21.895Z,36.40
2019-04-01T15:12:48.360Z,37.60
2019-04-01T15:15:15.033Z,36.50
2019-04-01T15:17:41.488Z,36.30
2019-04-01T15:20:09.420Z,36.40
2019-04-01T15:22:36.222Z,37.00
2019-04-01T15:25:06.581Z,37.20
2019-04-01T15:27:33.607Z,36.80
2019-04-01T15:30:00.208Z,37.50
2019-04-01T15:32:26.781Z,37.60
2019-04-01T15:34:53.538Z,36.80
2019-04-01T15:37:19.965Z,37.70
2019-04-01T15:39:47.305Z,37.10
2019-04-01T15:42:14.354Z,37.30
2019-04-01T15:44:41.135Z,38.10
2019-04-01T15:47:08.705Z,39.00
2019-04-01T15:49:35.347Z,38.40
2019-04-01T15:52:01.757Z,38.80
2019-04-01T15:54:28.189Z,39.60
2019-04-01T15:56:54.873Z,39.00
2019-04-01T15:59:21.268Z,39.60
2019-04-01T16:01:47.669Z,38.90
2019-04-01T16:04:16.425Z,39.60
2019-04-01T16:06:42.665Z,39.70
2019-04-01T16:09:09.126Z,40.50
2019-04-01T16:11:35.728Z,40.10
2019-04-01T16:14:02.511Z,41.10
2019-04-01T16:16:28.835Z,41.00
2019-04-01T16:18:55.417Z,42.10
2019-04-01T16:21:24.048Z,42.30
2019-04-01T16:23:51.433Z,43.00
2019-04-01T16:26:17.822Z,42.70
2019-04-01T16:28:44.904Z,42.30
2019-04-01T16:31:11.332Z,41.50
2019-04-01T16:33:37.943Z,43.70
2019-04-01T16:36:05.004Z,41.40
2019-04-01T16:38:31.411Z,42.90
2019-04-01T16:40:57.904Z,43.70
2019-04-01T16:43:24.605Z,43.50
2019-04-01T16:45:51.021Z,43.00
2019-04-01T16:48:17.424Z,43.60
2019-04-01T16:50:43.861Z,45.10
2019-04-01T16:53:10.788Z,44.20
2019-04-01T16:55:37.207Z,43.30
2019-04-01T16:58:03.727Z,44.70
2019-04-01T17:00:30.165Z,47.30
2019-04-01T17:02:56.559Z,48.60
2019-04-01T17:05:27.039Z,50.50
2019-04-01T17:07:54.748Z,48.00
2019-04-01T17:10:22.865Z,48.60
2019-04-01T17:12:49.259Z,48.80
2019-04-01T17:15:16.768Z,48.90
2019-04-01T17:17:43.773Z,51.90
2019-04-01T17:20:10.775Z,53.50
2019-04-01T17:22:37.518Z,54.60
2019-04-01T17:25:05.798Z,54.10
2019-04-01T17:27:32.518Z,54.20
2019-04-01T17:29:59.003Z,55.90
2019-04-01T17:32:25.440Z,56.40
2019-04-01T17:34:53.588Z,56.00
2019-04-01T17:37:20.176Z,56.30
2019-04-01T17:39:46.819Z,56.80
2019-04-01T17:42:13.276Z,56.80
2019-04-01T17:44:39.649Z,57.90
2019-04-01T17:47:06.383Z,57.80
2019-04-01T17:49:33.477Z,58.40
2019-04-01T17:52:00.459Z,59.20
2019-04-01T17:54:27.054Z,59.30
2019-04-01T17:56:53.423Z,60.00
2019-04-01T17:59:19.879Z,59.40
2019-04-01T18:01:46.349Z,60.90
2019-04-01T18:04:13.212Z,61.60
2019-04-01T18:06:39.690Z,62.70
2019-04-01T18:09:07.238Z,63.10
2019-04-01T18:11:34.037Z,63.20
2019-04-01T18:14:02.859Z,63.90
2019-04-01T18:16:31.165Z,65.70
2019-04-01T18:18:57.053Z,65.60
2019-04-01T18:21:23.505Z,67.50
2019-04-01T18:23:49.966Z,68.60
2019-04-01T18:26:17.120Z,69.80
2019-04-01T18:28:44.475Z,72.30
2019-04-01T18:31:10.924Z,74.60
2019-04-01T18:33:37.329Z,76.20
2019-04-01T18:36:03.797Z,78.20
2019-04-01T18:38:31.206Z,78.80
2019-04-01T18:40:57.660Z,80.70
2019-04-01T18:43:23.993Z,82.10
2019-04-01T18:45:51.233Z,83.00
2019-04-01T18:48:19.298Z,85.30
2019-04-01T18:50:46.099Z,87.50
2019-04-01T18:53:12.467Z,89.70
2019-04-01T18:55:38.900Z,90.60
2019-04-01T18:58:05.267Z,91.70
2019-04-01T19:00:31.669Z,92.20
2019-04-01T19:02:58.068Z,92.50
2019-04-01T19:05:24.516Z,92.70
2019-04-01T19:07:52.648Z,92.60
2019-04-01T19:10:19.138Z,93.20
2019-04-01T19:12:45.583Z,93.90
2019-04-01T19:15:12.096Z,93.70
2019-04-01T19:17:39.275Z,94.00
2019-04-01T19:20:05.946Z,94.30
2019-04-01T19:22:33.162Z,94.00
2019-04-01T19:25:00.365Z,94.00
2019-04-01T19:27:26.853Z,94.70
2019-04-01T19:29:53.387Z,94.60
2019-04-01T19:32:20.005Z,94.90
2019-04-01T19:34:46.544Z,94.60
2019-04-01T19:37:13.021Z,95.40
2019-04-01T19:39:39.465Z,95.20
2019-04-01T19:42:06.044Z,94.90
2019-04-01T19:44:32.530Z,95.70
2019-04-01T19:46:58.950Z,95.10
2019-04-01T19:49:25.405Z,95.40
2019-04-01T19:51:51.817Z,96.20
2019-04-01T19:54:27.973Z,96.30
2019-04-01T19:56:46.542Z,96.90
2019-04-01T19:59:12.933Z,96.00
2019-04-01T20:01:39.431Z,96.40
2019-04-01T20:04:05.752Z,96.30
2019-04-01T20:06:32.180Z,95.80
2019-04-01T20:08:58.516Z,95.90
2019-04-01T20:11:24.882Z,97.10
2019-04-01T20:13:51.305Z,97.00
2019-04-01T20:16:17.776Z,97.30
2019-04-01T20:18:44.274Z,98.10
2019-04-01T20:21:10.722Z,96.10
2019-04-01T20:23:37.391Z,95.80
2019-04-01T20:26:03.883Z,95.30
2019-04-01T20:28:31.465Z,97.60
2019-04-01T20:30:57.894Z,97.20
2019-04-01T20:33:24.208Z,96.80
2019-04-01T20:35:50.639Z,97.10
2019-04-01T20:38:17.689Z,97.40
2019-04-01T20:40:44.152Z,97.60
2019-04-01T20:43:10.778Z,97.10
2019-04-01T20:45:37.073Z,98.00
2019-04-01T20:48:04.491Z,97.60
2019-04-01T20:50:31.277Z,97.70
2019-04-01T20:52:57.694Z,97.50
2019-04-01T20:55:24.070Z,98.30
2019-04-01T20:57:50.495Z,98.10
2019-04-01T21:00:17.364Z,97.90
2019-04-01T21:02:43.765Z,96.90
2019-04-01T21:05:10.435Z,97.30
2019-04-01T21:07:36.850Z,97.20
2019-04-01T21:10:05.508Z,96.60
2019-04-01T21:12:31.921Z,96.70
2019-04-01T21:14:58.371Z,97.50
2019-04-01T21:17:24.794Z,97.20
2019-04-01T21:19:51.280Z,97.00
2019-04-01T21:22:17.793Z,97.10
2019-04-01T21:24:44.371Z,98.10
2019-04-01T21:27:10.789Z,97.20
2019-04-01T21:29:37.367Z,97.70
2019-04-01T21:32:03.821Z,97.30
2019-04-01T21:34:30.379Z,97.60
2019-04-01T21:36:56.943Z,97.20
2019-04-01T21:39:23.379Z,97.70
2019-04-01T21:41:49.822Z,98.50
2019-04-01T21:44:17.223Z,98.20
2019-04-01T21:46:44.468Z,98.60
2019-04-01T21:49:10.907Z,98.70
2019-04-01T21:51:37.351Z,98.80
2019-04-01T21:54:03.771Z,98.50
2019-04-01T21:56:30.215Z,98.70
2019-04-01T21:58:56.666Z,99.20
2019-04-01T22:01:23.172Z,99.00
2019-04-01T22:03:49.582Z,99.50
2019-04-01T22:06:16.032Z,99.50
2019-04-01T22:08:42.436Z,99.40
2019-04-01T22:11:08.862Z,99.10
2019-04-01T22:13:35.196Z,99.40
2019-04-01T22:16:01.597Z,99.50
2019-04-01T22:18:28.008Z,99.50
2019-04-01T22:20:54.466Z,99.60
2019-04-01T22:23:20.855Z,99.70
2019-04-01T22:25:47.190Z,99.90
2019-04-01T22:28:13.612Z,99.90
2019-04-01T22:30:39.921Z,99.90
2019-04-01T22:33:06.315Z,99.90
2019-04-01T22:35:38.638Z,99.90
2019-04-01T22:38:03.343Z,99.60
2019-04-01T22:40:30.522Z,99.70
2019-04-01T22:42:57.033Z,99.30
2019-04-01T22:45:23.399Z,99.30
2019-04-01T22:47:49.813Z,99.60
2019-04-01T22:50:16.186Z,99.50
2019-04-01T22:52:42.592Z,99.90
2019-04-01T22:55:09.036Z,99.70
2019-04-01T22:57:35.381Z,99.90
2019-04-01T23:00:01.852Z,99.90
2019-04-01T23:02:30.097Z,99.90
2019-04-01T23:04:56.518Z,99.90
2019-04-01T23:07:22.848Z,99.90
2019-04-01T23:09:49.243Z,99.90
2019-04-01T23:12:15.921Z,99.90
2019-04-01T23:14:42.340Z,99.90
2019-04-01T23:17:09.220Z,99.90
2019-04-01T23:19:36.579Z,99.90
2019-04-01T23:22:04.227Z,99.90
2019-04-01T23:24:30.614Z,99.90
2019-04-01T23:26:57.076Z,99.90
2019-04-01T23:29:23.520Z,99.90
2019-04-01T23:31:50.929Z,99.90
2019-04-01T23:34:17.295Z,99.90
2019-04-01T23:36:43.719Z,99.90
2019-04-01T23:39:10.224Z,99.90
2019-04-01T23:41:36.632Z,99.90
2019-04-01T23:44:03.257Z,99.90
2019-04-01T23:46:29.575Z,99.90
2019-04-01T23:48:55.961Z,99.90
2019-04-01T23:51:22.374Z,99.90
2019-04-01T23:53:48.830Z,99.90
2019-04-01T23:56:16.310Z,99.90
2019-04-01T23:58:42.746Z,99.90
